sensor_id;sensor_type;location;lat;lon;timestamp;pressure;altitude;pressure_sealevel;temperature;humidity
80837;BME280;70251;60.008;30.404;2024-02-26T00:01:52;101059.41;;;7.49;66.33
80837;BME280;70251;60.008;30.404;2024-02-26T00:04:18;101064.06;;;7.58;66.39
80837;BME280;70251;60.008;30.404;2024-02-26T00:06:43;101063.66;;;7.64;66.19
80837;BME280;70251;60.008;30.404;2024-02-26T00:09:10;101070.00;;;7.74;65.89
80837;BME280;70251;60.008;30.404;2024-02-26T00:11:36;101066.06;;;7.80;65.89
80837;BME280;70251;60.008;30.404;2024-02-26T00:14:03;101070.84;;;7.88;65.99
80837;BME280;70251;60.008;30.404;2024-02-26T00:16:29;101053.81;;;7.90;65.54
80837;BME280;70251;60.008;30.404;2024-02-26T00:19:01;101065.50;;;8.00;65.22
80837;BME280;70251;60.008;30.404;2024-02-26T00:21:30;101069.63;;;8.04;65.15
80837;BME280;70251;60.008;30.404;2024-02-26T00:23:56;101061.66;;;8.04;65.03
80837;BME280;70251;60.008;30.404;2024-02-26T00:26:22;101065.59;;;8.11;65.48
80837;BME280;70251;60.008;30.404;2024-02-26T00:28:48;101046.34;;;8.08;64.90
80837;BME280;70251;60.008;30.404;2024-02-26T00:31:14;101059.28;;;8.12;64.96
80837;BME280;70251;60.008;30.404;2024-02-26T00:33:40;101049.66;;;8.11;65.08
80837;BME280;70251;60.008;30.404;2024-02-26T00:36:06;101054.59;;;8.16;65.09
80837;BME280;70251;60.008;30.404;2024-02-26T00:38:32;101060.56;;;8.19;65.04
80837;BME280;70251;60.008;30.404;2024-02-26T00:40:57;101056.44;;;8.15;65.10
80837;BME280;70251;60.008;30.404;2024-02-26T00:43:23;101061.22;;;8.10;64.69
80837;BME280;70251;60.008;30.404;2024-02-26T00:45:48;101070.06;;;7.98;64.89
80837;BME280;70251;60.008;30.404;2024-02-26T00:48:14;101068.06;;;7.89;65.02
80837;BME280;70251;60.008;30.404;2024-02-26T00:50:40;101070.72;;;7.89;65.21
80837;BME280;70251;60.008;30.404;2024-02-26T00:53:06;101065.94;;;7.94;65.44
80837;BME280;70251;60.008;30.404;2024-02-26T00:55:31;101073.78;;;7.96;64.95
80837;BME280;70251;60.008;30.404;2024-02-26T00:57:57;101068.28;;;7.86;64.81
80837;BME280;70251;60.008;30.404;2024-02-26T01:00:22;101070.50;;;7.79;65.07
80837;BME280;70251;60.008;30.404;2024-02-26T01:02:48;101060.53;;;7.83;65.38
80837;BME280;70251;60.008;30.404;2024-02-26T01:05:14;101052.44;;;7.84;65.52
80837;BME280;70251;60.008;30.404;2024-02-26T01:07:42;101050.41;;;7.88;65.65
80837;BME280;70251;60.008;30.404;2024-02-26T01:10:08;101061.91;;;7.89;64.80
80837;BME280;70251;60.008;30.404;2024-02-26T01:12:34;101056.41;;;7.79;65.01
80837;BME280;70251;60.008;30.404;2024-02-26T01:15:01;101053.00;;;7.77;65.46
80837;BME280;70251;60.008;30.404;2024-02-26T01:17:27;101047.25;;;7.83;65.67
80837;BME280;70251;60.008;30.404;2024-02-26T01:20:11;101045.75;;;7.92;65.15
80837;BME280;70251;60.008;30.404;2024-02-26T01:22:37;101048.31;;;7.80;64.95
80837;BME280;70251;60.008;30.404;2024-02-26T01:25:04;101039.41;;;7.69;65.36
80837;BME280;70251;60.008;30.404;2024-02-26T01:27:31;101035.91;;;7.68;65.49
80837;BME280;70251;60.008;30.404;2024-02-26T01:29:56;101039.00;;;7.75;65.77
80837;BME280;70251;60.008;30.404;2024-02-26T01:32:22;101035.91;;;7.81;65.88
80837;BME280;70251;60.008;30.404;2024-02-26T01:34:48;101040.97;;;7.84;65.51
80837;BME280;70251;60.008;30.404;2024-02-26T01:37:14;101037.81;;;7.79;65.22
80837;BME280;70251;60.008;30.404;2024-02-26T01:39:39;101034.41;;;7.77;65.48
80837;BME280;70251;60.008;30.404;2024-02-26T01:42:07;101023.69;;;7.78;65.26
80837;BME280;70251;60.008;30.404;2024-02-26T01:44:33;101022.38;;;7.84;65.79
80837;BME280;70251;60.008;30.404;2024-02-26T01:46:59;101019.19;;;7.92;65.25
80837;BME280;70251;60.008;30.404;2024-02-26T01:49:27;101013.56;;;7.96;65.61
80837;BME280;70251;60.008;30.404;2024-02-26T01:51:54;101009.06;;;7.97;65.36
80837;BME280;70251;60.008;30.404;2024-02-26T01:54:20;101012.88;;;8.05;65.58
80837;BME280;70251;60.008;30.404;2024-02-26T01:56:46;101024.13;;;8.09;65.32
80837;BME280;70251;60.008;30.404;2024-02-26T01:59:12;101016.78;;;8.12;65.15
80837;BME280;70251;60.008;30.404;2024-02-26T02:01:40;101014.88;;;8.14;65.45
80837;BME280;70251;60.008;30.404;2024-02-26T02:04:28;101019.09;;;8.17;64.94
80837;BME280;70251;60.008;30.404;2024-02-26T02:06:53;101021.56;;;8.20;65.13
80837;BME280;70251;60.008;30.404;2024-02-26T02:09:19;101014.53;;;8.19;65.05
80837;BME280;70251;60.008;30.404;2024-02-26T02:11:46;101014.25;;;8.11;64.81
80837;BME280;70251;60.008;30.404;2024-02-26T02:14:15;101016.53;;;7.92;64.86
80837;BME280;70251;60.008;30.404;2024-02-26T02:16:40;101013.25;;;7.75;65.31
80837;BME280;70251;60.008;30.404;2024-02-26T02:19:06;101009.25;;;7.70;65.98
80837;BME280;70251;60.008;30.404;2024-02-26T02:21:32;101000.66;;;7.66;65.92
80837;BME280;70251;60.008;30.404;2024-02-26T02:23:58;100997.59;;;7.60;66.12
80837;BME280;70251;60.008;30.404;2024-02-26T02:26:23;100992.69;;;7.54;65.84
80837;BME280;70251;60.008;30.404;2024-02-26T02:28:49;101003.31;;;7.41;66.18
80837;BME280;70251;60.008;30.404;2024-02-26T02:31:20;101003.88;;;7.34;66.58
80837;BME280;70251;60.008;30.404;2024-02-26T02:33:45;101005.16;;;7.28;66.48
80837;BME280;70251;60.008;30.404;2024-02-26T02:36:11;101006.00;;;7.29;66.70
80837;BME280;70251;60.008;30.404;2024-02-26T02:38:37;101000.59;;;7.30;66.56
80837;BME280;70251;60.008;30.404;2024-02-26T02:41:06;101006.31;;;7.24;66.26
80837;BME280;70251;60.008;30.404;2024-02-26T02:43:34;101000.56;;;7.18;66.62
80837;BME280;70251;60.008;30.404;2024-02-26T02:46:00;101000.50;;;7.19;67.59
80837;BME280;70251;60.008;30.404;2024-02-26T02:48:25;101006.84;;;7.29;67.02
80837;BME280;70251;60.008;30.404;2024-02-26T02:50:51;101009.00;;;7.37;66.89
80837;BME280;70251;60.008;30.404;2024-02-26T02:53:17;101011.41;;;7.27;66.59
80837;BME280;70251;60.008;30.404;2024-02-26T02:55:43;101021.28;;;7.13;66.71
80837;BME280;70251;60.008;30.404;2024-02-26T02:58:09;101021.28;;;7.00;66.79
80837;BME280;70251;60.008;30.404;2024-02-26T03:00:34;101019.03;;;6.94;67.33
80837;BME280;70251;60.008;30.404;2024-02-26T03:03:00;101025.19;;;6.94;66.92
80837;BME280;70251;60.008;30.404;2024-02-26T03:05:26;101023.06;;;6.99;67.45
80837;BME280;70251;60.008;30.404;2024-02-26T03:07:51;101009.25;;;6.94;67.64
80837;BME280;70251;60.008;30.404;2024-02-26T03:10:18;101020.09;;;6.91;67.86
80837;BME280;70251;60.008;30.404;2024-02-26T03:12:43;101015.22;;;6.98;68.08
80837;BME280;70251;60.008;30.404;2024-02-26T03:15:09;101005.06;;;7.04;67.29
80837;BME280;70251;60.008;30.404;2024-02-26T03:17:36;101007.78;;;7.16;67.79
80837;BME280;70251;60.008;30.404;2024-02-26T03:20:03;101002.91;;;7.22;67.21
80837;BME280;70251;60.008;30.404;2024-02-26T03:22:35;100995.50;;;7.27;67.43
80837;BME280;70251;60.008;30.404;2024-02-26T03:25:01;100988.16;;;7.31;67.27
80837;BME280;70251;60.008;30.404;2024-02-26T03:27:30;100981.78;;;7.33;67.37
80837;BME280;70251;60.008;30.404;2024-02-26T03:29:56;100990.47;;;7.48;67.58
80837;BME280;70251;60.008;30.404;2024-02-26T03:32:22;100989.22;;;7.53;66.97
80837;BME280;70251;60.008;30.404;2024-02-26T03:34:48;100980.81;;;7.59;67.21
80837;BME280;70251;60.008;30.404;2024-02-26T03:37:13;100969.00;;;7.63;66.91
80837;BME280;70251;60.008;30.404;2024-02-26T03:39:40;100973.38;;;7.64;66.97
80837;BME280;70251;60.008;30.404;2024-02-26T03:42:06;100966.91;;;7.56;66.84
80837;BME280;70251;60.008;30.404;2024-02-26T03:44:32;100978.25;;;7.45;66.79
80837;BME280;70251;60.008;30.404;2024-02-26T03:46:57;100965.00;;;7.33;66.84
80837;BME280;70251;60.008;30.404;2024-02-26T03:49:23;100973.66;;;7.24;67.49
80837;BME280;70251;60.008;30.404;2024-02-26T03:51:54;100979.59;;;7.15;67.69
80837;BME280;70251;60.008;30.404;2024-02-26T03:54:19;100972.38;;;7.04;67.74
80837;BME280;70251;60.008;30.404;2024-02-26T03:56:45;100978.91;;;6.98;67.49
80837;BME280;70251;60.008;30.404;2024-02-26T03:59:10;100986.38;;;6.93;67.46
80837;BME280;70251;60.008;30.404;2024-02-26T04:04:20;100979.03;;;6.84;68.00
80837;BME280;70251;60.008;30.404;2024-02-26T04:06:46;100965.56;;;6.87;68.30
80837;BME280;70251;60.008;30.404;2024-02-26T04:09:14;100967.38;;;6.99;68.37
80837;BME280;70251;60.008;30.404;2024-02-26T04:11:50;100956.34;;;7.05;68.31
80837;BME280;70251;60.008;30.404;2024-02-26T04:14:15;100967.25;;;7.14;68.10
80837;BME280;70251;60.008;30.404;2024-02-26T04:16:41;100970.00;;;7.25;68.16
80837;BME280;70251;60.008;30.404;2024-02-26T04:19:07;100973.72;;;7.35;67.93
80837;BME280;70251;60.008;30.404;2024-02-26T04:21:33;100970.97;;;7.36;67.20
80837;BME280;70251;60.008;30.404;2024-02-26T04:23:59;100968.75;;;7.30;67.43
80837;BME280;70251;60.008;30.404;2024-02-26T04:26:28;100965.03;;;7.20;67.29
80837;BME280;70251;60.008;30.404;2024-02-26T04:28:54;100964.19;;;7.07;67.63
80837;BME280;70251;60.008;30.404;2024-02-26T04:31:23;100956.22;;;6.94;67.60
80837;BME280;70251;60.008;30.404;2024-02-26T04:33:59;100952.19;;;6.89;68.10
80837;BME280;70251;60.008;30.404;2024-02-26T04:36:28;100952.94;;;6.91;68.25
80837;BME280;70251;60.008;30.404;2024-02-26T04:38:58;100941.59;;;6.89;68.70
80837;BME280;70251;60.008;30.404;2024-02-26T04:41:27;100961.63;;;7.05;67.91
80837;BME280;70251;60.008;30.404;2024-02-26T04:43:53;100932.47;;;6.93;68.45
80837;BME280;70251;60.008;30.404;2024-02-26T04:46:19;100963.97;;;7.10;67.90
80837;BME280;70251;60.008;30.404;2024-02-26T04:48:47;100962.94;;;7.13;68.30
80837;BME280;70251;60.008;30.404;2024-02-26T04:51:13;100945.84;;;7.04;67.92
80837;BME280;70251;60.008;30.404;2024-02-26T04:53:39;100965.88;;;7.21;68.03
80837;BME280;70251;60.008;30.404;2024-02-26T04:56:05;100943.72;;;7.09;68.06
80837;BME280;70251;60.008;30.404;2024-02-26T04:58:31;100955.41;;;7.07;67.95
80837;BME280;70251;60.008;30.404;2024-02-26T05:00:57;100966.22;;;7.03;68.40
80837;BME280;70251;60.008;30.404;2024-02-26T05:03:22;100943.94;;;6.93;68.21
80837;BME280;70251;60.008;30.404;2024-02-26T05:05:55;100952.81;;;6.92;68.32
80837;BME280;70251;60.008;30.404;2024-02-26T05:08:26;100963.78;;;7.00;68.52
80837;BME280;70251;60.008;30.404;2024-02-26T05:11:05;100952.31;;;7.00;68.63
80837;BME280;70251;60.008;30.404;2024-02-26T05:13:59;100964.59;;;7.14;68.49
80837;BME280;70251;60.008;30.404;2024-02-26T05:16:32;100947.63;;;7.03;68.11
80837;BME280;70251;60.008;30.404;2024-02-26T05:19:00;100966.44;;;7.00;68.07
80837;BME280;70251;60.008;30.404;2024-02-26T05:21:46;100966.63;;;6.97;68.03
80837;BME280;70251;60.008;30.404;2024-02-26T05:24:14;100968.13;;;6.89;67.83
80837;BME280;70251;60.008;30.404;2024-02-26T05:26:43;100969.91;;;6.88;68.23
80837;BME280;70251;60.008;30.404;2024-02-26T05:29:09;100959.72;;;6.82;68.02
80837;BME280;70251;60.008;30.404;2024-02-26T05:31:35;100961.75;;;6.79;68.43
80837;BME280;70251;60.008;30.404;2024-02-26T05:34:01;100966.38;;;6.75;68.74
80837;BME280;70251;60.008;30.404;2024-02-26T05:36:36;100966.63;;;6.72;68.97
80837;BME280;70251;60.008;30.404;2024-02-26T05:39:04;100967.56;;;6.71;68.66
80837;BME280;70251;60.008;30.404;2024-02-26T05:41:30;100976.25;;;6.73;68.63
80837;BME280;70251;60.008;30.404;2024-02-26T05:44:14;100966.91;;;6.68;68.89
80837;BME280;70251;60.008;30.404;2024-02-26T05:46:41;100962.69;;;6.65;68.66
80837;BME280;70251;60.008;30.404;2024-02-26T05:49:07;100956.94;;;6.59;69.03
80837;BME280;70251;60.008;30.404;2024-02-26T05:51:33;100955.44;;;6.55;69.06
80837;BME280;70251;60.008;30.404;2024-02-26T05:53:59;100948.47;;;6.54;69.23
80837;BME280;70251;60.008;30.404;2024-02-26T05:56:24;100947.81;;;6.50;69.46
80837;BME280;70251;60.008;30.404;2024-02-26T05:58:50;100942.81;;;6.46;69.34
80837;BME280;70251;60.008;30.404;2024-02-26T06:01:17;100955.97;;;6.47;69.37
80837;BME280;70251;60.008;30.404;2024-02-26T06:03:43;100944.81;;;6.42;69.18
80837;BME280;70251;60.008;30.404;2024-02-26T06:06:13;100954.44;;;6.43;68.98
80837;BME280;70251;60.008;30.404;2024-02-26T06:08:40;100945.88;;;6.40;69.05
80837;BME280;70251;60.008;30.404;2024-02-26T06:11:06;100942.38;;;6.39;69.15
80837;BME280;70251;60.008;30.404;2024-02-26T06:13:33;100941.44;;;6.40;69.38
80837;BME280;70251;60.008;30.404;2024-02-26T06:15:59;100945.75;;;6.41;69.60
80837;BME280;70251;60.008;30.404;2024-02-26T06:18:24;100943.78;;;6.45;69.64
80837;BME280;70251;60.008;30.404;2024-02-26T06:20:50;100950.75;;;6.46;69.17
80837;BME280;70251;60.008;30.404;2024-02-26T06:23:15;100949.25;;;6.42;69.01
80837;BME280;70251;60.008;30.404;2024-02-26T06:25:41;100942.38;;;6.39;69.25
80837;BME280;70251;60.008;30.404;2024-02-26T06:28:08;100948.75;;;6.37;69.62
80837;BME280;70251;60.008;30.404;2024-02-26T06:30:34;100941.91;;;6.33;69.79
80837;BME280;70251;60.008;30.404;2024-02-26T06:33:00;100938.63;;;6.29;69.64
80837;BME280;70251;60.008;30.404;2024-02-26T06:35:26;100933.97;;;6.33;69.93
80837;BME280;70251;60.008;30.404;2024-02-26T06:37:51;100937.59;;;6.32;69.82
80837;BME280;70251;60.008;30.404;2024-02-26T06:40:19;100941.91;;;6.33;69.58
80837;BME280;70251;60.008;30.404;2024-02-26T06:42:44;100935.81;;;6.32;69.65
80837;BME280;70251;60.008;30.404;2024-02-26T06:45:10;100923.59;;;6.30;69.88
80837;BME280;70251;60.008;30.404;2024-02-26T06:47:36;100936.22;;;6.26;70.11
80837;BME280;70251;60.008;30.404;2024-02-26T06:50:03;100936.72;;;6.31;70.07
80837;BME280;70251;60.008;30.404;2024-02-26T06:52:30;100935.81;;;6.32;69.72
80837;BME280;70251;60.008;30.404;2024-02-26T06:54:56;100935.06;;;6.30;70.29
80837;BME280;70251;60.008;30.404;2024-02-26T06:57:22;100941.09;;;6.32;69.58
80837;BME280;70251;60.008;30.404;2024-02-26T06:59:47;100929.66;;;6.32;69.77
80837;BME280;70251;60.008;30.404;2024-02-26T07:02:13;100930.50;;;6.32;69.67
80837;BME280;70251;60.008;30.404;2024-02-26T07:04:39;100932.94;;;6.35;70.12
80837;BME280;70251;60.008;30.404;2024-02-26T07:07:07;100932.19;;;6.33;70.06
80837;BME280;70251;60.008;30.404;2024-02-26T07:09:32;100931.53;;;6.30;69.85
80837;BME280;70251;60.008;30.404;2024-02-26T07:12:04;100935.06;;;6.30;69.98
80837;BME280;70251;60.008;30.404;2024-02-26T07:14:30;100924.09;;;6.22;69.69
80837;BME280;70251;60.008;30.404;2024-02-26T07:16:55;100926.00;;;6.20;69.81
80837;BME280;70251;60.008;30.404;2024-02-26T07:19:21;100936.00;;;6.29;70.25
80837;BME280;70251;60.008;30.404;2024-02-26T07:21:47;100935.13;;;6.28;70.25
80837;BME280;70251;60.008;30.404;2024-02-26T07:24:12;100941.28;;;6.29;70.11
80837;BME280;70251;60.008;30.404;2024-02-26T07:26:39;100939.38;;;6.31;69.95
80837;BME280;70251;60.008;30.404;2024-02-26T07:29:05;100944.69;;;6.31;70.35
80837;BME280;70251;60.008;30.404;2024-02-26T07:31:31;100937.78;;;6.28;70.30
80837;BME280;70251;60.008;30.404;2024-02-26T07:33:56;100941.09;;;6.32;69.99
80837;BME280;70251;60.008;30.404;2024-02-26T07:36:22;100931.44;;;6.31;70.22
80837;BME280;70251;60.008;30.404;2024-02-26T07:38:47;100924.34;;;6.32;69.83
80837;BME280;70251;60.008;30.404;2024-02-26T07:41:13;100925.63;;;6.26;69.60
80837;BME280;70251;60.008;30.404;2024-02-26T07:43:39;100929.09;;;6.26;69.44
80837;BME280;70251;60.008;30.404;2024-02-26T07:46:06;100930.91;;;6.26;69.81
80837;BME280;70251;60.008;30.404;2024-02-26T07:48:32;100928.16;;;6.28;70.26
80837;BME280;70251;60.008;30.404;2024-02-26T07:50:57;100921.59;;;6.33;69.93
80837;BME280;70251;60.008;30.404;2024-02-26T07:53:30;100922.88;;;6.40;69.87
80837;BME280;70251;60.008;30.404;2024-02-26T07:55:56;100916.63;;;6.41;69.97
80837;BME280;70251;60.008;30.404;2024-02-26T07:58:23;100913.03;;;6.42;69.78
80837;BME280;70251;60.008;30.404;2024-02-26T08:00:49;100911.66;;;6.37;69.80
80837;BME280;70251;60.008;30.404;2024-02-26T08:03:15;100912.59;;;6.36;70.13
80837;BME280;70251;60.008;30.404;2024-02-26T08:05:42;100909.63;;;6.40;69.62
80837;BME280;70251;60.008;30.404;2024-02-26T08:08:09;100911.44;;;6.40;69.40
80837;BME280;70251;60.008;30.404;2024-02-26T08:10:34;100916.41;;;6.44;69.57
80837;BME280;70251;60.008;30.404;2024-02-26T08:13:00;100914.72;;;6.43;69.47
80837;BME280;70251;60.008;30.404;2024-02-26T08:15:35;100910.38;;;6.42;69.66
80837;BME280;70251;60.008;30.404;2024-02-26T08:18:01;100910.69;;;6.38;69.48
80837;BME280;70251;60.008;30.404;2024-02-26T08:20:31;100913.13;;;6.41;69.58
80837;BME280;70251;60.008;30.404;2024-02-26T08:22:57;100903.59;;;6.38;69.86
80837;BME280;70251;60.008;30.404;2024-02-26T08:25:23;100911.84;;;6.34;69.46
80837;BME280;70251;60.008;30.404;2024-02-26T08:27:49;100908.22;;;6.35;70.21
80837;BME280;70251;60.008;30.404;2024-02-26T08:30:16;100912.41;;;6.39;69.64
80837;BME280;70251;60.008;30.404;2024-02-26T08:32:47;100896.06;;;6.32;70.11
80837;BME280;70251;60.008;30.404;2024-02-26T08:35:13;100906.66;;;6.32;70.14
80837;BME280;70251;60.008;30.404;2024-02-26T08:37:38;100901.66;;;6.28;69.74
80837;BME280;70251;60.008;30.404;2024-02-26T08:40:05;100903.25;;;6.30;70.31
80837;BME280;70251;60.008;30.404;2024-02-26T08:42:32;100914.59;;;6.32;69.92
80837;BME280;70251;60.008;30.404;2024-02-26T08:44:57;100907.28;;;6.36;69.71
80837;BME280;70251;60.008;30.404;2024-02-26T08:47:25;100908.34;;;6.33;70.02
80837;BME280;70251;60.008;30.404;2024-02-26T08:49:51;100905.50;;;6.36;69.64
80837;BME280;70251;60.008;30.404;2024-02-26T08:52:17;100895.75;;;6.37;69.78
80837;BME280;70251;60.008;30.404;2024-02-26T08:54:43;100901.47;;;6.43;70.06
80837;BME280;70251;60.008;30.404;2024-02-26T08:57:08;100909.22;;;6.46;69.61
80837;BME280;70251;60.008;30.404;2024-02-26T08:59:35;100915.47;;;6.45;70.07
80837;BME280;70251;60.008;30.404;2024-02-26T09:02:00;100910.38;;;6.42;69.56
80837;BME280;70251;60.008;30.404;2024-02-26T09:04:26;100907.72;;;6.42;69.34
80837;BME280;70251;60.008;30.404;2024-02-26T09:06:53;100911.22;;;6.43;69.75
80837;BME280;70251;60.008;30.404;2024-02-26T09:09:19;100898.06;;;6.41;69.38
80837;BME280;70251;60.008;30.404;2024-02-26T09:11:45;100907.63;;;6.44;69.39
80837;BME280;70251;60.008;30.404;2024-02-26T09:14:12;100894.47;;;6.42;69.86
80837;BME280;70251;60.008;30.404;2024-02-26T09:16:38;100900.94;;;6.38;69.69
80837;BME280;70251;60.008;30.404;2024-02-26T09:19:03;100899.22;;;6.37;69.80
80837;BME280;70251;60.008;30.404;2024-02-26T09:21:32;100899.97;;;6.39;69.50
80837;BME280;70251;60.008;30.404;2024-02-26T09:23:57;100910.88;;;6.35;69.89
80837;BME280;70251;60.008;30.404;2024-02-26T09:26:26;100901.13;;;6.35;69.93
80837;BME280;70251;60.008;30.404;2024-02-26T09:28:51;100904.81;;;6.33;69.52
80837;BME280;70251;60.008;30.404;2024-02-26T09:31:20;100900.63;;;6.30;69.97
80837;BME280;70251;60.008;30.404;2024-02-26T09:33:45;100898.78;;;6.31;69.63
80837;BME280;70251;60.008;30.404;2024-02-26T09:36:11;100893.72;;;6.28;69.71
80837;BME280;70251;60.008;30.404;2024-02-26T09:38:37;100903.47;;;6.27;70.22
80837;BME280;70251;60.008;30.404;2024-02-26T09:41:04;100904.94;;;6.31;69.90
80837;BME280;70251;60.008;30.404;2024-02-26T09:43:37;100904.63;;;6.36;69.49
80837;BME280;70251;60.008;30.404;2024-02-26T09:46:05;100910.06;;;6.34;69.90
80837;BME280;70251;60.008;30.404;2024-02-26T09:48:32;100911.72;;;6.35;70.15
80837;BME280;70251;60.008;30.404;2024-02-26T09:51:01;100908.03;;;6.38;69.41
80837;BME280;70251;60.008;30.404;2024-02-26T09:53:30;100908.66;;;6.41;69.62
80837;BME280;70251;60.008;30.404;2024-02-26T09:56:16;100889.81;;;6.46;69.66
80837;BME280;70251;60.008;30.404;2024-02-26T09:58:42;100888.00;;;6.46;69.69
80837;BME280;70251;60.008;30.404;2024-02-26T10:01:13;100886.84;;;6.50;69.76
80837;BME280;70251;60.008;30.404;2024-02-26T10:03:42;100888.56;;;6.51;69.23
80837;BME280;70251;60.008;30.404;2024-02-26T10:06:30;100890.97;;;6.54;69.61
80837;BME280;70251;60.008;30.404;2024-02-26T10:08:58;100884.75;;;6.55;69.26
80837;BME280;70251;60.008;30.404;2024-02-26T10:11:24;100882.59;;;6.60;69.71
80837;BME280;70251;60.008;30.404;2024-02-26T10:13:50;100889.41;;;6.64;69.39
80837;BME280;70251;60.008;30.404;2024-02-26T10:16:17;100882.28;;;6.65;69.54
80837;BME280;70251;60.008;30.404;2024-02-26T10:18:50;100886.22;;;6.72;69.35
80837;BME280;70251;60.008;30.404;2024-02-26T10:21:17;100881.97;;;6.69;68.95
80837;BME280;70251;60.008;30.404;2024-02-26T10:23:46;100881.66;;;6.74;68.85
80837;BME280;70251;60.008;30.404;2024-02-26T10:26:22;100882.41;;;6.76;68.79
80837;BME280;70251;60.008;30.404;2024-02-26T10:28:47;100882.22;;;6.79;68.97
80837;BME280;70251;60.008;30.404;2024-02-26T10:31:16;100884.19;;;6.75;68.43
80837;BME280;70251;60.008;30.404;2024-02-26T10:33:43;100882.09;;;6.68;68.66
80837;BME280;70251;60.008;30.404;2024-02-26T10:36:18;100883.78;;;6.69;68.83
80837;BME280;70251;60.008;30.404;2024-02-26T10:38:49;100880.63;;;6.64;68.86
80837;BME280;70251;60.008;30.404;2024-02-26T10:41:18;100882.41;;;6.63;68.44
80837;BME280;70251;60.008;30.404;2024-02-26T10:43:47;100881.97;;;6.57;68.09
80837;BME280;70251;60.008;30.404;2024-02-26T10:46:20;100870.94;;;6.38;68.49
80837;BME280;70251;60.008;30.404;2024-02-26T10:49:15;100882.91;;;6.43;68.93
80837;BME280;70251;60.008;30.404;2024-02-26T10:51:55;100856.94;;;6.36;69.00
80837;BME280;70251;60.008;30.404;2024-02-26T10:54:26;100877.28;;;6.48;68.91
80837;BME280;70251;60.008;30.404;2024-02-26T10:56:58;100850.78;;;6.35;68.88
80837;BME280;70251;60.008;30.404;2024-02-26T10:59:24;100875.63;;;6.47;68.67
80837;BME280;70251;60.008;30.404;2024-02-26T11:01:51;100864.47;;;6.42;68.48
80837;BME280;70251;60.008;30.404;2024-02-26T11:04:18;100866.50;;;6.38;68.73
80837;BME280;70251;60.008;30.404;2024-02-26T11:06:48;100880.91;;;6.47;69.08
80837;BME280;70251;60.008;30.404;2024-02-26T11:09:16;100878.28;;;6.47;69.03
80837;BME280;70251;60.008;30.404;2024-02-26T11:11:44;100872.84;;;6.48;68.80
80837;BME280;70251;60.008;30.404;2024-02-26T11:14:10;100875.31;;;6.51;68.49
80837;BME280;70251;60.008;30.404;2024-02-26T11:16:37;100877.28;;;6.48;68.69
80837;BME280;70251;60.008;30.404;2024-02-26T11:19:06;100871.25;;;6.46;68.63
80837;BME280;70251;60.008;30.404;2024-02-26T11:21:34;100866.69;;;6.48;69.01
80837;BME280;70251;60.008;30.404;2024-02-26T11:24:14;100867.34;;;6.51;69.11
80837;BME280;70251;60.008;30.404;2024-02-26T11:26:51;100871.81;;;6.51;68.63
80837;BME280;70251;60.008;30.404;2024-02-26T11:29:32;100872.53;;;6.53;68.63
80837;BME280;70251;60.008;30.404;2024-02-26T11:32:00;100870.22;;;6.48;68.48
80837;BME280;70251;60.008;30.404;2024-02-26T11:34:26;100871.56;;;6.41;68.65
80837;BME280;70251;60.008;30.404;2024-02-26T11:36:53;100870.31;;;6.34;68.86
80837;BME280;70251;60.008;30.404;2024-02-26T11:39:27;100868.41;;;6.36;68.58
80837;BME280;70251;60.008;30.404;2024-02-26T11:42:05;100863.09;;;6.36;68.81
80837;BME280;70251;60.008;30.404;2024-02-26T11:44:31;100866.69;;;6.35;69.04
80837;BME280;70251;60.008;30.404;2024-02-26T11:46:56;100866.69;;;6.35;68.53
80837;BME280;70251;60.008;30.404;2024-02-26T11:51:54;100864.38;;;6.43;68.60
80837;BME280;70251;60.008;30.404;2024-02-26T11:54:49;100866.63;;;6.49;68.28
80837;BME280;70251;60.008;30.404;2024-02-26T12:02:55;100871.50;;;6.55;68.15
80837;BME280;70251;60.008;30.404;2024-02-26T12:05:31;100861.09;;;6.52;68.46
80837;BME280;70251;60.008;30.404;2024-02-26T12:08:03;100855.03;;;6.50;68.39
80837;BME280;70251;60.008;30.404;2024-02-26T12:10:39;100867.66;;;6.47;68.34
80837;BME280;70251;60.008;30.404;2024-02-26T12:13:12;100858.56;;;6.51;68.43
80837;BME280;70251;60.008;30.404;2024-02-26T12:15:41;100854.94;;;6.52;68.69
80837;BME280;70251;60.008;30.404;2024-02-26T12:18:07;100858.66;;;6.49;68.58
80837;BME280;70251;60.008;30.404;2024-02-26T12:20:35;100872.44;;;6.54;68.25
80837;BME280;70251;60.008;30.404;2024-02-26T12:23:02;100872.44;;;6.54;68.50
80837;BME280;70251;60.008;30.404;2024-02-26T12:25:30;100867.06;;;6.56;68.67
80837;BME280;70251;60.008;30.404;2024-02-26T12:27:57;100859.91;;;6.56;68.15
80837;BME280;70251;60.008;30.404;2024-02-26T12:30:42;100865.97;;;6.58;68.24
80837;BME280;70251;60.008;30.404;2024-02-26T12:33:43;100860.78;;;6.57;67.85
80837;BME280;70251;60.008;30.404;2024-02-26T12:36:11;100844.31;;;6.39;68.28
80837;BME280;70251;60.008;30.404;2024-02-26T12:38:37;100862.06;;;6.39;68.58
80837;BME280;70251;60.008;30.404;2024-02-26T12:41:03;100842.53;;;6.27;68.62
80837;BME280;70251;60.008;30.404;2024-02-26T12:43:30;100859.06;;;6.43;68.56
80837;BME280;70251;60.008;30.404;2024-02-26T12:45:56;100842.34;;;6.30;67.96
80837;BME280;70251;60.008;30.404;2024-02-26T12:48:25;100857.38;;;6.42;68.35
80837;BME280;70251;60.008;30.404;2024-02-26T12:50:51;100852.59;;;6.35;68.51
80837;BME280;70251;60.008;30.404;2024-02-26T12:53:19;100835.75;;;6.36;68.84
80837;BME280;70251;60.008;30.404;2024-02-26T12:55:45;100849.53;;;6.41;68.10
80837;BME280;70251;60.008;30.404;2024-02-26T12:58:11;100859.59;;;6.48;68.46
80837;BME280;70251;60.008;30.404;2024-02-26T13:00:38;100861.50;;;6.46;68.03
80837;BME280;70251;60.008;30.404;2024-02-26T13:03:04;100847.41;;;6.46;68.67
80837;BME280;70251;60.008;30.404;2024-02-26T13:05:30;100844.44;;;6.50;68.17